createdAt,value
2019-04-20T00:00:51.075Z,7.94
2019-04-20T00:03:19.460Z,7.97
2019-04-20T00:05:53.073Z,7.88
2019-04-20T00:08:31.100Z,7.85
2019-04-20T00:11:08.042Z,7.69
2019-04-20T00:13:47.697Z,7.55
2019-04-20T00:16:10.205Z,7.53
2019-04-20T00:18:48.269Z,7.43
2019-04-20T00:21:17.504Z,7.36
2019-04-20T00:23:51.383Z,7.35
2019-04-20T00:26:52.192Z,7.38
2019-04-20T00:29:19.859Z,7.38
2019-04-20T00:31:43.060Z,7.36
2019-04-20T00:34:09.205Z,7.36
2019-04-20T00:36:35.104Z,7.35
2019-04-20T00:39:11.298Z,7.30
2019-04-20T00:41:49.015Z,7.26
2019-04-20T00:44:21.996Z,7.22
2019-04-20T00:47:04.476Z,7.19
2019-04-20T00:49:37.086Z,7.23
2019-04-20T00:52:18.844Z,7.23
2019-04-20T00:54:26.514Z,7.20
2019-04-20T00:57:09.336Z,7.13
2019-04-20T00:59:51.893Z,7.12
2019-04-20T01:02:22.201Z,7.07
2019-04-20T01:05:02.460Z,7.06
2019-04-20T01:07:24.248Z,6.98
2019-04-20T01:09:49.951Z,6.95
2019-04-20T01:12:27.982Z,6.87
2019-04-20T01:15:01.054Z,6.79
2019-04-20T01:17:30.319Z,6.80
2019-04-20T01:20:02.698Z,6.81
2019-04-20T01:22:40.168Z,6.81
2019-04-20T01:25:18.250Z,6.83
2019-04-20T01:28:04.461Z,6.74
2019-04-20T01:30:25.261Z,6.80
2019-04-20T01:33:06.286Z,6.78
2019-04-20T01:35:40.927Z,6.72
2019-04-20T01:38:16.964Z,6.70
2019-04-20T01:40:29.625Z,6.71
2019-04-20T01:43:01.571Z,6.67
2019-04-20T01:45:37.666Z,6.69
2019-04-20T01:48:06.875Z,6.73
2019-04-20T01:50:49.902Z,6.79
2019-04-20T01:53:23.654Z,6.80
2019-04-20T01:56:01.438Z,6.74
2019-04-20T01:58:39.853Z,6.65
2019-04-20T02:00:58.827Z,6.68
2019-04-20T02:03:38.440Z,6.60
2019-04-20T02:06:11.637Z,6.58
2019-04-20T02:08:40.032Z,6.54
2019-04-20T02:11:18.690Z,6.53
2019-04-20T02:13:49.949Z,6.57
2019-04-20T02:16:26.958Z,6.59
2019-04-20T02:19:05.317Z,6.51
2019-04-20T02:21:37.872Z,6.42
2019-04-20T02:24:00.575Z,6.34
2019-04-20T02:26:30.126Z,6.24
2019-04-20T02:29:24.590Z,6.14
2019-04-20T02:32:15.818Z,6.04
2019-04-20T02:34:53.782Z,6.07
2019-04-20T02:37:36.572Z,5.99
2019-04-20T02:42:30.074Z,5.98
2019-04-20T02:45:00.711Z,5.93
2019-04-20T02:47:47.794Z,5.85
2019-04-20T02:52:48.890Z,5.79
2019-04-20T02:57:50.972Z,5.78
2019-04-20T03:00:12.300Z,5.81
2019-04-20T03:02:31.308Z,5.78
2019-04-20T03:05:06.444Z,5.81
2019-04-20T03:07:41.489Z,5.82
2019-04-20T03:10:17.990Z,5.77
2019-04-20T03:12:59.704Z,5.77
2019-04-20T03:15:36.022Z,5.76
2019-04-20T03:18:05.098Z,5.73
2019-04-20T03:20:36.790Z,5.63
2019-04-20T03:25:45.489Z,5.42
2019-04-20T03:28:16.117Z,5.45
2019-04-20T03:31:20.520Z,5.48
2019-04-20T03:33:44.695Z,5.50
2019-04-20T03:36:07.875Z,5.48
2019-04-20T03:38:29.861Z,5.43
2019-04-20T03:40:56.031Z,5.41
2019-04-20T03:43:15.990Z,5.39
2019-04-20T03:45:56.209Z,5.41
2019-04-20T03:48:35.893Z,5.41
2019-04-20T03:51:14.774Z,5.37
2019-04-20T03:53:50.216Z,5.31
2019-04-20T03:56:29.765Z,5.28
2019-04-20T03:58:57.229Z,5.23
2019-04-20T04:01:57.476Z,5.24
2019-04-20T04:04:10.958Z,5.28
2019-04-20T04:06:33.581Z,5.27
2019-04-20T04:09:11.400Z,5.34
2019-04-20T04:11:46.097Z,5.23
2019-04-20T04:14:03.049Z,5.25
2019-04-20T04:16:42.274Z,5.24
2019-04-20T04:19:17.685Z,5.18
2019-04-20T04:21:59.212Z,5.23
2019-04-20T04:24:26.063Z,5.15
2019-04-20T04:27:04.591Z,5.21
2019-04-20T04:29:41.892Z,5.26
2019-04-20T04:32:33.063Z,5.26
2019-04-20T04:34:51.417Z,5.32
2019-04-20T04:37:28.426Z,5.34
2019-04-20T04:40:01.049Z,5.36
2019-04-20T04:42:34.262Z,5.40
2019-04-20T04:44:53.597Z,5.33
2019-04-20T04:47:18.124Z,5.46
2019-04-20T04:49:57.863Z,5.58
2019-04-20T04:52:28.922Z,5.69
2019-04-20T04:55:07.584Z,5.83
2019-04-20T04:57:30.444Z,5.97
2019-04-20T05:00:01.818Z,6.13
2019-04-20T05:02:41.262Z,6.25
2019-04-20T05:05:31.173Z,6.38
2019-04-20T05:07:51.774Z,6.54
2019-04-20T05:10:15.990Z,6.67
2019-04-20T05:12:48.169Z,6.86
2019-04-20T05:15:32.413Z,6.97
2019-04-20T05:18:16.318Z,7.08
2019-04-20T05:20:51.537Z,7.17
2019-04-20T05:23:16.284Z,7.31
2019-04-20T05:25:58.675Z,7.44
2019-04-20T05:28:24.040Z,7.54
2019-04-20T05:30:48.629Z,7.63
2019-04-20T05:33:30.501Z,7.72
2019-04-20T05:36:11.693Z,7.81
2019-04-20T05:38:47.210Z,7.89
2019-04-20T05:41:16.657Z,7.99
2019-04-20T05:43:51.439Z,8.08
2019-04-20T05:46:26.180Z,8.14
2019-04-20T05:49:02.606Z,8.21
2019-04-20T05:51:40.699Z,8.27
2019-04-20T05:54:09.774Z,8.35
2019-04-20T05:56:46.854Z,8.43
2019-04-20T05:59:11.499Z,8.56
2019-04-20T06:01:52.792Z,8.62
2019-04-20T06:04:30.089Z,8.71
2019-04-20T06:06:55.429Z,8.81
2019-04-20T06:09:28.574Z,8.92
2019-04-20T06:14:31.605Z,9.17
2019-04-20T06:17:11.214Z,9.27
2019-04-20T06:19:39.265Z,9.34
2019-04-20T06:22:28.478Z,9.46
2019-04-20T06:25:10.077Z,9.65
2019-04-20T06:27:30.320Z,9.70
2019-04-20T06:29:55.917Z,9.85
2019-04-20T06:32:38.705Z,10.03
2019-04-20T06:35:18.719Z,10.12
2019-04-20T06:37:45.803Z,10.20
2019-04-20T06:40:36.407Z,10.38
2019-04-20T06:42:48.340Z,10.55
2019-04-20T06:45:27.784Z,10.62
2019-04-20T06:48:01.016Z,10.84
2019-04-20T06:50:24.372Z,10.88
2019-04-20T06:53:13.279Z,10.92
2019-04-20T06:55:42.904Z,11.02
2019-04-20T06:58:24.877Z,11.25
2019-04-20T07:00:42.029Z,11.39
2019-04-20T07:03:30.593Z,11.58
2019-04-20T07:05:50.515Z,11.69
2019-04-20T07:08:34.136Z,11.85
2019-04-20T07:11:02.164Z,12.06
2019-04-20T07:13:20.358Z,12.00
2019-04-20T07:15:53.114Z,12.25
2019-04-20T07:18:35.297Z,12.46
2019-04-20T07:21:07.170Z,12.57
2019-04-20T07:23:43.715Z,12.68
2019-04-20T07:26:21.017Z,12.67
2019-04-20T07:28:54.375Z,12.73
2019-04-20T07:31:18.923Z,12.93
2019-04-20T07:33:52.174Z,13.10
2019-04-20T07:36:26.580Z,13.21
2019-04-20T07:39:03.156Z,13.37
2019-04-20T07:41:32.999Z,13.47
2019-04-20T07:44:15.767Z,13.62
2019-04-20T07:46:48.485Z,13.76
2019-04-20T07:49:07.621Z,13.81
2019-04-20T07:51:26.614Z,13.92
2019-04-20T07:54:24.691Z,14.10
2019-04-20T07:56:47.694Z,14.28
2019-04-20T07:59:11.273Z,14.52
2019-04-20T08:02:00.832Z,14.53
2019-04-20T08:04:22.616Z,14.70
2019-04-20T08:06:46.874Z,14.85
2019-04-20T08:09:22.035Z,14.96
2019-04-20T08:12:12.388Z,15.15
2019-04-20T08:14:49.056Z,15.30
2019-04-20T08:17:20.369Z,15.48
2019-04-20T08:19:45.684Z,15.60
2019-04-20T08:22:27.259Z,15.61
2019-04-20T08:24:51.847Z,15.83
2019-04-20T08:27:13.158Z,15.92
2019-04-20T08:29:58.800Z,16.05
2019-04-20T08:32:40.307Z,16.08
2019-04-20T08:35:22.205Z,15.95
2019-04-20T08:38:00.857Z,16.07
2019-04-20T08:40:24.340Z,16.19
2019-04-20T08:43:04.631Z,16.31
2019-04-20T08:45:37.874Z,16.38
2019-04-20T08:48:11.309Z,16.37
2019-04-20T08:50:34.043Z,16.46
2019-04-20T08:55:42.518Z,16.80
2019-04-20T08:57:59.920Z,16.86
2019-04-20T09:00:39.665Z,16.93
2019-04-20T09:03:13.190Z,16.80
2019-04-20T09:05:49.963Z,16.92
2019-04-20T09:08:17.758Z,17.12
2019-04-20T09:11:02.685Z,17.35
2019-04-20T09:13:26.944Z,17.46
2019-04-20T09:15:51.324Z,17.64
2019-04-20T09:18:34.298Z,17.75
2019-04-20T09:21:06.797Z,17.86
2019-04-20T09:23:49.626Z,17.77
2019-04-20T09:26:23.137Z,17.75
2019-04-20T09:28:55.698Z,17.80
2019-04-20T09:31:31.010Z,17.77
2019-04-20T09:34:07.574Z,17.80
2019-04-20T09:36:44.724Z,18.01
2019-04-20T09:39:11.521Z,18.06
2019-04-20T09:41:58.543Z,18.28
2019-04-20T09:44:11.047Z,18.41
2019-04-20T09:46:49.266Z,18.43
2019-04-20T09:49:32.391Z,18.59
2019-04-20T09:52:01.388Z,18.80
2019-04-20T09:54:41.586Z,18.82
2019-04-20T09:57:13.162Z,18.90
2019-04-20T09:59:44.659Z,19.00
2019-04-20T10:02:08.878Z,18.81
2019-04-20T10:04:35.457Z,18.93
2019-04-20T10:07:13.812Z,19.01
2019-04-20T10:09:44.846Z,18.94
2019-04-20T10:12:15.591Z,18.77
2019-04-20T10:14:49.049Z,18.83
2019-04-20T10:17:20.921Z,18.55
2019-04-20T10:19:53.438Z,18.67
2019-04-20T10:22:26.661Z,18.90
2019-04-20T10:24:57.824Z,19.22
2019-04-20T10:27:30.646Z,19.28
2019-04-20T10:30:05.643Z,19.43
2019-04-20T10:32:45.581Z,19.45
2019-04-20T10:35:18.559Z,19.42
2019-04-20T10:37:53.634Z,19.51
2019-04-20T10:40:38.051Z,19.74
2019-04-20T10:43:01.068Z,19.72
2019-04-20T10:45:32.973Z,19.84
2019-04-20T10:48:05.418Z,19.94
2019-04-20T10:50:38.968Z,19.97
2019-04-20T10:53:12.011Z,19.93
2019-04-20T10:55:45.319Z,20.05
2019-04-20T10:58:17.936Z,20.26
2019-04-20T11:00:50.265Z,20.30
2019-04-20T11:03:24.844Z,20.42
2019-04-20T11:05:58.442Z,20.36
2019-04-20T11:08:30.705Z,20.40
2019-04-20T11:11:10.858Z,20.41
2019-04-20T11:13:35.621Z,20.52
2019-04-20T11:16:08.535Z,20.57
2019-04-20T11:18:41.117Z,20.57
2019-04-20T11:21:13.241Z,20.30
2019-04-20T11:23:44.550Z,20.33
2019-04-20T11:26:16.141Z,20.23
2019-04-20T11:28:48.349Z,20.47
2019-04-20T11:31:20.024Z,20.57
2019-04-20T11:33:52.234Z,20.53
2019-04-20T11:36:23.285Z,20.50
2019-04-20T11:38:54.433Z,20.66
2019-04-20T11:41:28.841Z,20.76
2019-04-20T11:43:58.086Z,21.02
2019-04-20T11:46:30.413Z,21.09
2019-04-20T11:49:01.498Z,21.03
2019-04-20T11:51:32.267Z,20.81
2019-04-20T11:54:04.515Z,20.78
2019-04-20T11:56:40.194Z,20.76
2019-04-20T12:00:00.903Z,20.77
2019-04-20T12:03:16.064Z,20.83
2019-04-20T12:06:04.797Z,20.72
2019-04-20T12:09:05.141Z,20.39
2019-04-20T12:11:59.533Z,20.40
2019-04-20T12:14:20.772Z,20.60
2019-04-20T12:17:15.947Z,20.63
2019-04-20T12:23:00.539Z,20.87
2019-04-20T12:25:37.614Z,21.08
2019-04-20T12:28:53.822Z,21.21
2019-04-20T12:32:04.160Z,20.99
2019-04-20T12:38:46.424Z,20.77
2019-04-20T12:42:33.189Z,20.91
2019-04-20T12:45:53.813Z,20.86
2019-04-20T12:52:10.338Z,20.59
2019-04-20T12:54:44.237Z,20.43
2019-04-20T12:57:14.517Z,20.46
2019-04-20T12:59:47.840Z,20.43
2019-04-20T13:02:19.656Z,20.56
2019-04-20T13:04:53.293Z,20.63
2019-04-20T13:07:25.038Z,20.75
2019-04-20T13:09:56.906Z,20.80
2019-04-20T13:12:30.430Z,20.90
2019-04-20T13:15:06.610Z,20.89
2019-04-20T13:17:37.991Z,21.06
2019-04-20T13:20:10.042Z,20.82
2019-04-20T13:22:41.220Z,20.91
2019-04-20T13:25:16.935Z,20.90
2019-04-20T13:27:49.110Z,20.80
2019-04-20T13:30:25.910Z,20.79
2019-04-20T13:32:57.468Z,20.82
2019-04-20T13:35:28.305Z,20.99
2019-04-20T13:38:00.285Z,21.09
2019-04-20T13:40:33.436Z,21.04
2019-04-20T13:43:05.807Z,21.06
2019-04-20T13:45:39.165Z,20.98
2019-04-20T13:48:10.998Z,20.86
2019-04-20T13:50:42.433Z,20.79
2019-04-20T13:53:13.170Z,20.76
2019-04-20T13:55:45.477Z,20.88
2019-04-20T13:58:18.852Z,20.88
2019-04-20T14:00:55.552Z,20.87
2019-04-20T14:03:30.016Z,20.82
2019-04-20T14:06:02.650Z,20.97
2019-04-20T14:08:36.029Z,20.91
2019-04-20T14:11:11.474Z,20.94
2019-04-20T14:13:50.102Z,21.00
2019-04-20T14:16:16.544Z,20.95
2019-04-20T14:18:49.389Z,20.70
2019-04-20T14:21:20.465Z,20.63
2019-04-20T14:23:51.352Z,20.65
2019-04-20T14:26:23.032Z,20.65
2019-04-20T14:28:54.789Z,20.52
2019-04-20T14:31:27.940Z,20.56
2019-04-20T14:33:59.148Z,20.40
2019-04-20T14:36:30.863Z,20.36
2019-04-20T14:39:02.461Z,20.39
2019-04-20T14:41:36.049Z,20.33
2019-04-20T14:44:07.904Z,20.38
2019-04-20T14:46:39.946Z,20.45
2019-04-20T14:49:10.957Z,20.52
2019-04-20T14:51:41.948Z,20.48
2019-04-20T14:54:13.886Z,20.59
2019-04-20T14:56:45.384Z,20.57
2019-04-20T14:59:18.270Z,20.60
2019-04-20T15:01:52.418Z,20.70
2019-04-20T15:04:25.512Z,20.92
2019-04-20T15:06:56.909Z,20.88
2019-04-20T15:09:28.760Z,20.96
2019-04-20T15:12:00.937Z,21.00
2019-04-20T15:14:32.489Z,20.98
2019-04-20T15:17:04.761Z,21.11
2019-04-20T15:19:37.344Z,21.24
2019-04-20T15:22:11.436Z,21.15
2019-04-20T15:24:42.268Z,21.01
2019-04-20T15:27:16.469Z,20.84
2019-04-20T15:29:48.547Z,20.93
2019-04-20T15:32:20.821Z,20.91
2019-04-20T15:34:52.998Z,20.79
2019-04-20T15:37:24.290Z,20.72
2019-04-20T15:39:55.268Z,20.77
2019-04-20T15:42:27.510Z,20.77
2019-04-20T15:44:58.507Z,20.62
2019-04-20T15:47:29.997Z,20.75
2019-04-20T15:50:02.232Z,20.71
2019-04-20T15:52:37.579Z,20.61
2019-04-20T15:55:14.377Z,20.47
2019-04-20T15:57:40.670Z,20.28
2019-04-20T16:00:12.270Z,20.38
2019-04-20T16:02:45.308Z,20.35
2019-04-20T16:05:18.621Z,20.24
2019-04-20T16:07:56.209Z,20.13
2019-04-20T16:10:23.324Z,19.97
2019-04-20T16:13:05.678Z,19.95
2019-04-20T16:15:27.566Z,19.94
2019-04-20T16:18:00.909Z,19.88
2019-04-20T16:20:46.030Z,19.88
2019-04-20T16:23:06.946Z,19.88
2019-04-20T16:28:27.785Z,19.78
2019-04-20T16:30:59.435Z,19.75
2019-04-20T16:33:30.958Z,19.65
2019-04-20T16:36:02.637Z,19.61
2019-04-20T16:38:35.227Z,19.62
2019-04-20T16:41:08.448Z,19.55
2019-04-20T16:43:44.580Z,19.51
2019-04-20T16:46:18.299Z,19.47
2019-04-20T16:48:48.491Z,19.48
2019-04-20T16:51:22.896Z,19.45
2019-04-20T16:53:56.031Z,19.40
2019-04-20T16:56:29.175Z,19.39
2019-04-20T16:59:06.134Z,19.35
2019-04-20T17:01:35.216Z,19.31
2019-04-20T17:04:13.561Z,19.22
2019-04-20T17:06:42.835Z,19.17
2019-04-20T17:09:15.667Z,19.13
2019-04-20T17:11:47.883Z,19.08
2019-04-20T17:14:20.870Z,19.03
2019-04-20T17:16:53.443Z,18.93
2019-04-20T17:19:25.959Z,18.92
2019-04-20T17:21:59.166Z,18.88
2019-04-20T17:24:31.515Z,18.86
2019-04-20T17:27:05.266Z,18.88
2019-04-20T17:29:41.120Z,18.85
2019-04-20T17:32:13.762Z,18.75
2019-04-20T17:35:00.020Z,18.71
2019-04-20T17:37:18.443Z,18.66
2019-04-20T17:40:12.935Z,18.65
2019-04-20T17:42:36.323Z,18.51
2019-04-20T17:45:03.829Z,18.38
2019-04-20T17:47:47.311Z,18.27
2019-04-20T17:50:20.027Z,18.20
2019-04-20T17:52:52.262Z,18.10
2019-04-20T17:55:22.127Z,18.02
2019-04-20T17:57:43.514Z,17.88
2019-04-20T18:00:17.600Z,17.73
2019-04-20T18:03:07.383Z,17.57
2019-04-20T18:05:44.789Z,17.41
2019-04-20T18:08:22.449Z,17.28
2019-04-20T18:10:45.915Z,17.15
2019-04-20T18:13:12.068Z,16.94
2019-04-20T18:15:54.086Z,16.76
2019-04-20T18:18:27.427Z,16.64
2019-04-20T18:20:48.529Z,16.46
2019-04-20T18:23:27.274Z,16.32
2019-04-20T18:26:15.687Z,16.19
2019-04-20T18:28:54.852Z,16.08
2019-04-20T18:31:05.322Z,15.95
2019-04-20T18:33:38.383Z,15.84
2019-04-20T18:36:13.354Z,15.73
2019-04-20T18:38:54.282Z,15.61
2019-04-20T18:41:28.828Z,15.52
2019-04-20T18:43:57.376Z,15.41
2019-04-20T18:46:49.376Z,15.29
2019-04-20T18:49:14.741Z,15.11
2019-04-20T18:51:33.445Z,14.98
2019-04-20T18:54:08.285Z,14.85
2019-04-20T18:56:43.825Z,14.73
2019-04-20T18:59:11.342Z,14.60
2019-04-20T19:01:44.955Z,14.54
2019-04-20T19:04:17.566Z,14.47
2019-04-20T19:06:50.037Z,14.36
2019-04-20T19:09:27.146Z,14.22
2019-04-20T19:12:00.844Z,14.17
2019-04-20T19:14:35.617Z,14.06
2019-04-20T19:17:13.929Z,13.97
2019-04-20T19:19:43.379Z,13.85
2019-04-20T19:22:12.254Z,13.77
2019-04-20T19:24:45.006Z,13.69
2019-04-20T19:27:18.880Z,13.57
2019-04-20T19:29:58.283Z,13.52
2019-04-20T19:32:38.481Z,13.43
2019-04-20T19:35:04.619Z,13.23
2019-04-20T19:37:33.106Z,12.70
2019-04-20T19:40:11.981Z,12.60
2019-04-20T19:42:43.471Z,12.54
2019-04-20T19:45:33.585Z,12.55
2019-04-20T19:47:51.248Z,12.59
2019-04-20T19:50:35.655Z,12.66
2019-04-20T19:53:15.457Z,12.71
2019-04-20T19:55:31.347Z,12.74
2019-04-20T19:58:03.016Z,12.77
2019-04-20T20:00:32.898Z,12.76
2019-04-20T20:03:05.850Z,12.78
2019-04-20T20:05:42.333Z,12.75
2019-04-20T20:08:14.974Z,12.71
2019-04-20T20:10:44.201Z,12.68
2019-04-20T20:13:15.503Z,12.61
2019-04-20T20:15:47.183Z,12.52
2019-04-20T20:18:33.087Z,12.53
2019-04-20T20:21:04.765Z,12.52
2019-04-20T20:23:22.003Z,12.54
2019-04-20T20:25:53.270Z,12.52
2019-04-20T20:28:33.542Z,12.45
2019-04-20T20:31:08.347Z,12.35
2019-04-20T20:33:51.043Z,12.27
2019-04-20T20:36:12.703Z,12.19
2019-04-20T20:38:43.664Z,12.11
2019-04-20T20:41:21.422Z,12.11
2019-04-20T20:43:56.348Z,12.00
2019-04-20T20:46:29.446Z,11.92
2019-04-20T20:49:11.755Z,11.84
2019-04-20T20:51:52.803Z,11.75
2019-04-20T20:54:08.995Z,11.69
2019-04-20T20:56:35.631Z,11.58
2019-04-20T20:59:13.926Z,11.52
2019-04-20T21:01:50.124Z,11.47
2019-04-20T21:04:13.097Z,11.41
2019-04-20T21:06:45.031Z,11.31
2019-04-20T21:09:16.677Z,11.26
2019-04-20T21:11:57.339Z,11.20
2019-04-20T21:14:27.900Z,11.06
2019-04-20T21:17:06.537Z,10.94
2019-04-20T21:19:48.055Z,10.91
2019-04-20T21:22:11.333Z,10.85
2019-04-20T21:24:39.972Z,10.78
2019-04-20T21:27:15.298Z,10.74
2019-04-20T21:29:51.404Z,10.75
2019-04-20T21:32:23.340Z,10.66
2019-04-20T21:35:02.659Z,10.62
2019-04-20T21:37:30.585Z,10.56
2019-04-20T21:40:14.036Z,10.50
2019-04-20T21:42:44.549Z,10.43
2019-04-20T21:45:16.417Z,10.33
2019-04-20T21:47:45.269Z,10.33
2019-04-20T21:50:34.633Z,10.20
2019-04-20T21:52:55.213Z,10.10
2019-04-20T21:55:23.762Z,10.01
2019-04-20T21:58:00.159Z,9.94
2019-04-20T22:00:38.517Z,9.88
2019-04-20T22:03:09.835Z,9.82
2019-04-20T22:05:40.333Z,9.79
2019-04-20T22:08:15.737Z,9.72
2019-04-20T22:10:44.989Z,9.69
2019-04-20T22:13:19.402Z,9.68
2019-04-20T22:15:56.705Z,9.65
2019-04-20T22:18:25.384Z,9.62
2019-04-20T22:21:11.191Z,9.56
2019-04-20T22:23:49.907Z,9.52
2019-04-20T22:26:17.393Z,9.43
2019-04-20T22:28:38.316Z,9.41
2019-04-20T22:31:11.919Z,9.35
2019-04-20T22:33:46.847Z,9.31
2019-04-20T22:36:18.395Z,9.28
2019-04-20T22:38:55.977Z,9.21
2019-04-20T22:41:27.698Z,9.19
2019-04-20T22:44:01.799Z,9.15
2019-04-20T22:46:34.088Z,9.08
2019-04-20T22:49:22.040Z,8.99
2019-04-20T22:51:50.512Z,8.95
2019-04-20T22:54:27.615Z,8.89
2019-04-20T22:56:57.600Z,8.87
2019-04-20T22:59:22.855Z,8.81
2019-04-20T23:01:58.233Z,8.74
2019-04-20T23:04:26.673Z,8.68
2019-04-20T23:06:59.130Z,8.66
2019-04-20T23:09:34.186Z,8.64
2019-04-20T23:12:10.163Z,8.63
2019-04-20T23:14:38.389Z,8.61
2019-04-20T23:17:10.410Z,8.50
2019-04-20T23:19:48.602Z,8.45
2019-04-20T23:22:16.036Z,8.41
2019-04-20T23:24:48.983Z,8.33
2019-04-20T23:27:26.301Z,8.33
2019-04-20T23:29:55.259Z,8.27
2019-04-20T23:32:30.162Z,8.27
2019-04-20T23:35:05.869Z,8.24
2019-04-20T23:37:38.521Z,8.21
2019-04-20T23:40:11.313Z,8.16
2019-04-20T23:42:45.942Z,8.10
2019-04-20T23:45:26.930Z,8.07
2019-04-20T23:47:58.839Z,8.06
2019-04-20T23:50:49.012Z,7.94
2019-04-20T23:53:21.222Z,7.91
2019-04-20T23:55:35.981Z,7.86
2019-04-20T23:58:10.756Z,7.84
